sensor_id;sensor_type;location;lat;lon;timestamp;P1;durP1;ratioP1;P2;durP2;ratioP2
21894;SDS011;11112;51.270;7.224;2024-02-23T00:02:35;1.40;;;0.40;;
21894;SDS011;11112;51.270;7.224;2024-02-23T00:05:28;1.77;;;0.30;;
21894;SDS011;11112;51.270;7.224;2024-02-23T00:08:23;0.93;;;0.30;;
21894;SDS011;11112;51.270;7.224;2024-02-23T00:11:21;1.27;;;0.35;;
21894;SDS011;11112;51.270;7.224;2024-02-23T00:14:22;0.57;;;0.30;;
21894;SDS011;11112;51.270;7.224;2024-02-23T00:17:12;1.52;;;0.40;;
21894;SDS011;11112;51.270;7.224;2024-02-23T00:20:03;1.30;;;0.50;;
21894;SDS011;11112;51.270;7.224;2024-02-23T00:22:57;2.35;;;0.50;;
21894;SDS011;11112;51.270;7.224;2024-02-23T00:25:55;1.15;;;0.40;;
21894;SDS011;11112;51.270;7.224;2024-02-23T00:28:53;1.75;;;0.45;;
21894;SDS011;11112;51.270;7.224;2024-02-23T00:31:45;1.90;;;0.50;;
21894;SDS011;11112;51.270;7.224;2024-02-23T00:34:38;0.68;;;0.30;;
21894;SDS011;11112;51.270;7.224;2024-02-23T00:37:34;0.80;;;0.30;;
21894;SDS011;11112;51.270;7.224;2024-02-23T00:40:26;0.50;;;0.22;;
21894;SDS011;11112;51.270;7.224;2024-02-23T00:43:29;0.90;;;0.20;;
21894;SDS011;11112;51.270;7.224;2024-02-23T00:46:40;0.63;;;0.30;;
21894;SDS011;11112;51.270;7.224;2024-02-23T00:49:41;0.68;;;0.30;;
21894;SDS011;11112;51.270;7.224;2024-02-23T00:52:36;1.58;;;0.40;;
21894;SDS011;11112;51.270;7.224;2024-02-23T00:55:32;1.40;;;0.40;;
21894;SDS011;11112;51.270;7.224;2024-02-23T00:58:25;1.73;;;0.30;;
21894;SDS011;11112;51.270;7.224;2024-02-23T01:01:17;0.90;;;0.40;;
21894;SDS011;11112;51.270;7.224;2024-02-23T01:04:21;1.90;;;0.50;;
21894;SDS011;11112;51.270;7.224;2024-02-23T01:07:14;2.17;;;0.50;;
21894;SDS011;11112;51.270;7.224;2024-02-23T01:10:15;1.90;;;0.47;;
21894;SDS011;11112;51.270;7.224;2024-02-23T01:13:08;1.20;;;0.40;;
21894;SDS011;11112;51.270;7.224;2024-02-23T01:16:00;1.00;;;0.40;;
21894;SDS011;11112;51.270;7.224;2024-02-23T01:18:57;1.38;;;0.50;;
21894;SDS011;11112;51.270;7.224;2024-02-23T01:21:50;0.73;;;0.32;;
21894;SDS011;11112;51.270;7.224;2024-02-23T01:24:34;2.95;;;0.50;;
21894;SDS011;11112;51.270;7.224;2024-02-23T01:27:32;1.80;;;0.50;;
21894;SDS011;11112;51.270;7.224;2024-02-23T01:30:34;1.77;;;0.50;;
21894;SDS011;11112;51.270;7.224;2024-02-23T01:33:27;4.22;;;0.73;;
21894;SDS011;11112;51.270;7.224;2024-02-23T01:36:23;2.38;;;0.70;;
21894;SDS011;11112;51.270;7.224;2024-02-23T01:39:13;2.05;;;0.65;;
21894;SDS011;11112;51.270;7.224;2024-02-23T01:42:05;1.67;;;0.50;;
21894;SDS011;11112;51.270;7.224;2024-02-23T01:44:36;3.13;;;0.80;;
21894;SDS011;11112;51.270;7.224;2024-02-23T01:47:09;2.60;;;0.60;;
21894;SDS011;11112;51.270;7.224;2024-02-23T01:50:01;3.03;;;0.80;;
21894;SDS011;11112;51.270;7.224;2024-02-23T01:53:13;3.40;;;0.90;;
21894;SDS011;11112;51.270;7.224;2024-02-23T01:56:05;3.97;;;0.98;;
21894;SDS011;11112;51.270;7.224;2024-02-23T01:59:00;2.75;;;0.70;;
21894;SDS011;11112;51.270;7.224;2024-02-23T02:01:57;3.65;;;0.70;;
21894;SDS011;11112;51.270;7.224;2024-02-23T02:04:50;5.25;;;0.77;;
21894;SDS011;11112;51.270;7.224;2024-02-23T02:07:45;4.20;;;0.75;;
21894;SDS011;11112;51.270;7.224;2024-02-23T02:10:44;3.45;;;0.70;;
21894;SDS011;11112;51.270;7.224;2024-02-23T02:13:39;3.22;;;0.63;;
21894;SDS011;11112;51.270;7.224;2024-02-23T02:16:31;2.30;;;0.60;;
21894;SDS011;11112;51.270;7.224;2024-02-23T02:19:24;2.67;;;0.70;;
21894;SDS011;11112;51.270;7.224;2024-02-23T02:22:17;5.47;;;0.70;;
21894;SDS011;11112;51.270;7.224;2024-02-23T02:25:14;2.67;;;0.70;;
21894;SDS011;11112;51.270;7.224;2024-02-23T02:28:08;3.88;;;0.60;;
21894;SDS011;11112;51.270;7.224;2024-02-23T02:30:56;3.92;;;0.60;;
21894;SDS011;11112;51.270;7.224;2024-02-23T02:33:48;3.13;;;0.68;;
21894;SDS011;11112;51.270;7.224;2024-02-23T02:36:43;2.85;;;0.57;;
21894;SDS011;11112;51.270;7.224;2024-02-23T02:39:33;2.28;;;0.55;;
21894;SDS011;11112;51.270;7.224;2024-02-23T02:42:23;6.07;;;0.70;;
21894;SDS011;11112;51.270;7.224;2024-02-23T02:45:15;3.42;;;0.70;;
21894;SDS011;11112;51.270;7.224;2024-02-23T02:48:08;3.65;;;0.88;;
21894;SDS011;11112;51.270;7.224;2024-02-23T02:51:01;3.65;;;0.80;;
21894;SDS011;11112;51.270;7.224;2024-02-23T02:53:47;3.28;;;0.73;;
21894;SDS011;11112;51.270;7.224;2024-02-23T02:56:43;2.55;;;0.60;;
21894;SDS011;11112;51.270;7.224;2024-02-23T02:59:50;4.68;;;0.80;;
21894;SDS011;11112;51.270;7.224;2024-02-23T03:02:39;3.22;;;0.60;;
21894;SDS011;11112;51.270;7.224;2024-02-23T03:05:31;4.88;;;0.80;;
21894;SDS011;11112;51.270;7.224;2024-02-23T03:08:23;3.42;;;0.70;;
21894;SDS011;11112;51.270;7.224;2024-02-23T03:11:22;3.33;;;0.70;;
21894;SDS011;11112;51.270;7.224;2024-02-23T03:14:15;5.28;;;0.70;;
21894;SDS011;11112;51.270;7.224;2024-02-23T03:17:08;4.93;;;0.65;;
21894;SDS011;11112;51.270;7.224;2024-02-23T03:20:00;3.38;;;0.60;;
21894;SDS011;11112;51.270;7.224;2024-02-23T03:22:52;5.43;;;0.60;;
21894;SDS011;11112;51.270;7.224;2024-02-23T03:25:44;3.95;;;0.52;;
21894;SDS011;11112;51.270;7.224;2024-02-23T03:28:32;4.13;;;0.60;;
21894;SDS011;11112;51.270;7.224;2024-02-23T03:31:25;4.18;;;0.70;;
21894;SDS011;11112;51.270;7.224;2024-02-23T03:34:22;2.60;;;0.60;;
21894;SDS011;11112;51.270;7.224;2024-02-23T03:37:26;3.63;;;0.68;;
21894;SDS011;11112;51.270;7.224;2024-02-23T03:40:19;3.88;;;0.63;;
21894;SDS011;11112;51.270;7.224;2024-02-23T03:43:19;4.18;;;0.68;;
21894;SDS011;11112;51.270;7.224;2024-02-23T03:45:57;4.80;;;0.70;;
21894;SDS011;11112;51.270;7.224;2024-02-23T03:48:39;5.03;;;0.65;;
21894;SDS011;11112;51.270;7.224;2024-02-23T03:51:37;6.45;;;0.70;;
21894;SDS011;11112;51.270;7.224;2024-02-23T03:54:27;4.55;;;0.85;;
21894;SDS011;11112;51.270;7.224;2024-02-23T03:57:19;3.70;;;0.80;;
21894;SDS011;11112;51.270;7.224;2024-02-23T04:00:13;3.50;;;0.75;;
21894;SDS011;11112;51.270;7.224;2024-02-23T04:03:07;2.90;;;0.45;;
21894;SDS011;11112;51.270;7.224;2024-02-23T04:06:08;4.30;;;0.57;;
21894;SDS011;11112;51.270;7.224;2024-02-23T04:09:13;3.10;;;0.60;;
21894;SDS011;11112;51.270;7.224;2024-02-23T04:14:51;3.70;;;0.63;;
21894;SDS011;11112;51.270;7.224;2024-02-23T04:17:44;4.38;;;0.70;;
21894;SDS011;11112;51.270;7.224;2024-02-23T04:20:38;5.13;;;0.60;;
21894;SDS011;11112;51.270;7.224;2024-02-23T04:23:30;4.72;;;0.60;;
21894;SDS011;11112;51.270;7.224;2024-02-23T04:26:27;4.03;;;0.70;;
21894;SDS011;11112;51.270;7.224;2024-02-23T04:29:19;4.00;;;0.73;;
21894;SDS011;11112;51.270;7.224;2024-02-23T04:32:06;4.00;;;0.70;;
21894;SDS011;11112;51.270;7.224;2024-02-23T04:34:54;4.97;;;0.60;;
21894;SDS011;11112;51.270;7.224;2024-02-23T04:37:46;6.90;;;0.90;;
21894;SDS011;11112;51.270;7.224;2024-02-23T04:40:38;6.60;;;0.77;;
21894;SDS011;11112;51.270;7.224;2024-02-23T04:43:33;5.75;;;0.60;;
21894;SDS011;11112;51.270;7.224;2024-02-23T04:46:11;4.43;;;0.55;;
21894;SDS011;11112;51.270;7.224;2024-02-23T04:49:05;5.65;;;0.65;;
21894;SDS011;11112;51.270;7.224;2024-02-23T04:51:59;7.85;;;0.80;;
21894;SDS011;11112;51.270;7.224;2024-02-23T04:54:51;3.95;;;0.60;;
21894;SDS011;11112;51.270;7.224;2024-02-23T04:57:46;4.57;;;0.60;;
21894;SDS011;11112;51.270;7.224;2024-02-23T05:00:42;3.72;;;0.63;;
21894;SDS011;11112;51.270;7.224;2024-02-23T05:03:24;4.85;;;0.80;;
21894;SDS011;11112;51.270;7.224;2024-02-23T05:06:05;3.35;;;0.50;;
21894;SDS011;11112;51.270;7.224;2024-02-23T05:08:57;3.97;;;0.60;;
21894;SDS011;11112;51.270;7.224;2024-02-23T05:11:50;4.03;;;0.50;;
21894;SDS011;11112;51.270;7.224;2024-02-23T05:14:45;5.40;;;0.55;;
21894;SDS011;11112;51.270;7.224;2024-02-23T05:17:43;3.67;;;0.55;;
21894;SDS011;11112;51.270;7.224;2024-02-23T05:20:36;5.90;;;0.93;;
21894;SDS011;11112;51.270;7.224;2024-02-23T05:23:28;6.75;;;0.80;;
21894;SDS011;11112;51.270;7.224;2024-02-23T05:26:21;5.25;;;0.60;;
21894;SDS011;11112;51.270;7.224;2024-02-23T05:29:14;5.53;;;0.60;;
21894;SDS011;11112;51.270;7.224;2024-02-23T05:32:07;4.78;;;0.63;;
21894;SDS011;11112;51.270;7.224;2024-02-23T05:35:04;4.80;;;0.50;;
21894;SDS011;11112;51.270;7.224;2024-02-23T05:37:59;6.70;;;0.77;;
21894;SDS011;11112;51.270;7.224;2024-02-23T05:40:53;5.15;;;0.80;;
21894;SDS011;11112;51.270;7.224;2024-02-23T05:43:45;5.45;;;0.82;;
21894;SDS011;11112;51.270;7.224;2024-02-23T05:46:48;4.65;;;0.75;;
21894;SDS011;11112;51.270;7.224;2024-02-23T05:52:32;5.72;;;0.70;;
21894;SDS011;11112;51.270;7.224;2024-02-23T05:55:18;5.47;;;0.75;;
21894;SDS011;11112;51.270;7.224;2024-02-23T05:58:13;5.65;;;0.80;;
21894;SDS011;11112;51.270;7.224;2024-02-23T06:01:05;4.50;;;0.77;;
21894;SDS011;11112;51.270;7.224;2024-02-23T06:04:05;4.50;;;0.60;;
21894;SDS011;11112;51.270;7.224;2024-02-23T06:06:57;7.15;;;0.75;;
21894;SDS011;11112;51.270;7.224;2024-02-23T06:09:56;4.80;;;1.10;;
21894;SDS011;11112;51.270;7.224;2024-02-23T06:12:49;3.50;;;0.90;;
21894;SDS011;11112;51.270;7.224;2024-02-23T06:15:41;7.07;;;1.33;;
21894;SDS011;11112;51.270;7.224;2024-02-23T06:18:33;4.30;;;1.08;;
21894;SDS011;11112;51.270;7.224;2024-02-23T06:21:25;4.53;;;0.70;;
21894;SDS011;11112;51.270;7.224;2024-02-23T06:24:17;6.88;;;1.30;;
21894;SDS011;11112;51.270;7.224;2024-02-23T06:27:20;5.00;;;0.77;;
21894;SDS011;11112;51.270;7.224;2024-02-23T06:30:12;6.15;;;1.20;;
21894;SDS011;11112;51.270;7.224;2024-02-23T06:33:05;4.18;;;0.80;;
21894;SDS011;11112;51.270;7.224;2024-02-23T06:35:57;5.22;;;0.95;;
21894;SDS011;11112;51.270;7.224;2024-02-23T06:38:50;3.78;;;0.90;;
21894;SDS011;11112;51.270;7.224;2024-02-23T06:41:51;7.47;;;1.30;;
21894;SDS011;11112;51.270;7.224;2024-02-23T06:44:48;6.50;;;1.00;;
21894;SDS011;11112;51.270;7.224;2024-02-23T06:47:40;5.47;;;0.80;;
21894;SDS011;11112;51.270;7.224;2024-02-23T06:50:34;5.47;;;1.00;;
21894;SDS011;11112;51.270;7.224;2024-02-23T06:53:26;5.95;;;1.15;;
21894;SDS011;11112;51.270;7.224;2024-02-23T06:56:18;6.35;;;1.10;;
21894;SDS011;11112;51.270;7.224;2024-02-23T06:58:51;5.07;;;1.00;;
21894;SDS011;11112;51.270;7.224;2024-02-23T07:04:53;6.00;;;0.98;;
21894;SDS011;11112;51.270;7.224;2024-02-23T07:07:44;4.28;;;0.93;;
21894;SDS011;11112;51.270;7.224;2024-02-23T07:10:39;4.03;;;0.75;;
21894;SDS011;11112;51.270;7.224;2024-02-23T07:13:32;3.53;;;0.80;;
21894;SDS011;11112;51.270;7.224;2024-02-23T07:16:25;5.60;;;1.27;;
21894;SDS011;11112;51.270;7.224;2024-02-23T07:19:35;5.07;;;1.00;;
21894;SDS011;11112;51.270;7.224;2024-02-23T07:22:35;4.97;;;0.93;;
21894;SDS011;11112;51.270;7.224;2024-02-23T07:25:30;5.93;;;0.80;;
21894;SDS011;11112;51.270;7.224;2024-02-23T07:28:22;5.93;;;0.90;;
21894;SDS011;11112;51.270;7.224;2024-02-23T07:31:15;5.82;;;0.95;;
21894;SDS011;11112;51.270;7.224;2024-02-23T07:34:07;6.00;;;0.90;;
21894;SDS011;11112;51.270;7.224;2024-02-23T07:37:03;5.82;;;0.85;;
21894;SDS011;11112;51.270;7.224;2024-02-23T07:39:54;5.68;;;0.60;;
21894;SDS011;11112;51.270;7.224;2024-02-23T07:42:46;4.75;;;0.80;;
21894;SDS011;11112;51.270;7.224;2024-02-23T07:45:48;4.95;;;0.63;;
21894;SDS011;11112;51.270;7.224;2024-02-23T07:48:49;4.40;;;0.98;;
21894;SDS011;11112;51.270;7.224;2024-02-23T07:51:44;4.50;;;0.90;;
21894;SDS011;11112;51.270;7.224;2024-02-23T07:54:41;7.13;;;1.10;;
21894;SDS011;11112;51.270;7.224;2024-02-23T07:57:35;4.90;;;1.10;;
21894;SDS011;11112;51.270;7.224;2024-02-23T08:00:31;5.82;;;1.00;;
21894;SDS011;11112;51.270;7.224;2024-02-23T08:03:24;5.95;;;1.10;;
21894;SDS011;11112;51.270;7.224;2024-02-23T08:06:17;6.53;;;0.95;;
21894;SDS011;11112;51.270;7.224;2024-02-23T08:09:15;6.50;;;1.40;;
21894;SDS011;11112;51.270;7.224;2024-02-23T08:12:18;6.53;;;1.02;;
21894;SDS011;11112;51.270;7.224;2024-02-23T08:15:00;6.65;;;0.90;;
21894;SDS011;11112;51.270;7.224;2024-02-23T08:17:53;6.20;;;0.80;;
21894;SDS011;11112;51.270;7.224;2024-02-23T08:20:45;7.40;;;1.17;;
21894;SDS011;11112;51.270;7.224;2024-02-23T08:23:32;4.75;;;1.00;;
21894;SDS011;11112;51.270;7.224;2024-02-23T08:26:25;6.03;;;1.17;;
21894;SDS011;11112;51.270;7.224;2024-02-23T08:29:22;5.72;;;0.85;;
21894;SDS011;11112;51.270;7.224;2024-02-23T08:32:14;5.25;;;0.98;;
21894;SDS011;11112;51.270;7.224;2024-02-23T08:35:06;6.90;;;1.02;;
21894;SDS011;11112;51.270;7.224;2024-02-23T08:38:00;4.82;;;1.02;;
21894;SDS011;11112;51.270;7.224;2024-02-23T08:40:52;4.80;;;1.10;;
21894;SDS011;11112;51.270;7.224;2024-02-23T08:43:42;6.00;;;1.25;;
21894;SDS011;11112;51.270;7.224;2024-02-23T08:46:30;6.40;;;1.05;;
21894;SDS011;11112;51.270;7.224;2024-02-23T08:49:28;6.45;;;1.13;;
21894;SDS011;11112;51.270;7.224;2024-02-23T08:52:21;4.32;;;1.00;;
21894;SDS011;11112;51.270;7.224;2024-02-23T08:55:12;5.45;;;1.30;;
21894;SDS011;11112;51.270;7.224;2024-02-23T08:58:05;6.70;;;1.02;;
21894;SDS011;11112;51.270;7.224;2024-02-23T09:01:00;3.75;;;0.90;;
21894;SDS011;11112;51.270;7.224;2024-02-23T09:03:51;5.32;;;0.88;;
21894;SDS011;11112;51.270;7.224;2024-02-23T09:06:43;6.88;;;1.23;;
21894;SDS011;11112;51.270;7.224;2024-02-23T09:09:31;5.43;;;1.10;;
21894;SDS011;11112;51.270;7.224;2024-02-23T09:12:30;5.10;;;1.50;;
21894;SDS011;11112;51.270;7.224;2024-02-23T09:15:26;6.38;;;1.05;;
21894;SDS011;11112;51.270;7.224;2024-02-23T09:18:19;4.45;;;0.90;;
21894;SDS011;11112;51.270;7.224;2024-02-23T09:21:30;7.45;;;1.20;;
21894;SDS011;11112;51.270;7.224;2024-02-23T09:24:16;7.15;;;0.73;;
21894;SDS011;11112;51.270;7.224;2024-02-23T09:27:12;7.38;;;1.20;;
21894;SDS011;11112;51.270;7.224;2024-02-23T09:30:07;6.93;;;1.08;;
21894;SDS011;11112;51.270;7.224;2024-02-23T09:33:03;7.97;;;1.55;;
21894;SDS011;11112;51.270;7.224;2024-02-23T09:35:55;7.72;;;1.10;;
21894;SDS011;11112;51.270;7.224;2024-02-23T09:38:53;6.22;;;1.08;;
21894;SDS011;11112;51.270;7.224;2024-02-23T09:41:45;5.88;;;0.80;;
21894;SDS011;11112;51.270;7.224;2024-02-23T09:44:49;6.38;;;0.95;;
21894;SDS011;11112;51.270;7.224;2024-02-23T09:47:48;5.40;;;1.00;;
21894;SDS011;11112;51.270;7.224;2024-02-23T09:50:30;4.53;;;1.00;;
21894;SDS011;11112;51.270;7.224;2024-02-23T09:53:26;5.82;;;1.02;;
21894;SDS011;11112;51.270;7.224;2024-02-23T09:56:25;4.03;;;0.80;;
21894;SDS011;11112;51.270;7.224;2024-02-23T09:59:22;6.82;;;0.80;;
21894;SDS011;11112;51.270;7.224;2024-02-23T10:02:14;3.90;;;0.77;;
21894;SDS011;11112;51.270;7.224;2024-02-23T10:05:07;4.75;;;0.90;;
21894;SDS011;11112;51.270;7.224;2024-02-23T10:08:15;7.55;;;1.02;;
21894;SDS011;11112;51.270;7.224;2024-02-23T10:11:11;7.25;;;0.85;;
21894;SDS011;11112;51.270;7.224;2024-02-23T10:14:10;6.68;;;0.80;;
21894;SDS011;11112;51.270;7.224;2024-02-23T10:17:01;4.72;;;0.95;;
21894;SDS011;11112;51.270;7.224;2024-02-23T10:19:54;4.30;;;1.00;;
21894;SDS011;11112;51.270;7.224;2024-02-23T10:22:48;4.75;;;0.80;;
21894;SDS011;11112;51.270;7.224;2024-02-23T10:25:40;5.80;;;0.90;;
21894;SDS011;11112;51.270;7.224;2024-02-23T10:28:41;4.47;;;0.98;;
21894;SDS011;11112;51.270;7.224;2024-02-23T10:31:30;3.53;;;0.70;;
21894;SDS011;11112;51.270;7.224;2024-02-23T10:34:22;3.40;;;0.73;;
21894;SDS011;11112;51.270;7.224;2024-02-23T10:37:25;5.78;;;0.90;;
21894;SDS011;11112;51.270;7.224;2024-02-23T10:40:20;4.72;;;0.70;;
21894;SDS011;11112;51.270;7.224;2024-02-23T10:43:16;3.55;;;0.75;;
21894;SDS011;11112;51.270;7.224;2024-02-23T10:46:21;3.53;;;0.80;;
21894;SDS011;11112;51.270;7.224;2024-02-23T10:49:13;4.03;;;0.68;;
21894;SDS011;11112;51.270;7.224;2024-02-23T10:52:08;3.33;;;0.50;;
21894;SDS011;11112;51.270;7.224;2024-02-23T10:55:03;3.40;;;0.70;;
21894;SDS011;11112;51.270;7.224;2024-02-23T10:57:40;6.00;;;0.60;;
21894;SDS011;11112;51.270;7.224;2024-02-23T11:00:36;4.28;;;0.50;;
21894;SDS011;11112;51.270;7.224;2024-02-23T11:03:33;3.88;;;0.70;;
21894;SDS011;11112;51.270;7.224;2024-02-23T11:06:29;5.28;;;0.75;;
21894;SDS011;11112;51.270;7.224;2024-02-23T11:09:24;4.25;;;0.70;;
21894;SDS011;11112;51.270;7.224;2024-02-23T11:12:24;2.78;;;0.70;;
21894;SDS011;11112;51.270;7.224;2024-02-23T11:15:32;5.72;;;0.73;;
21894;SDS011;11112;51.270;7.224;2024-02-23T11:18:31;7.40;;;0.63;;
21894;SDS011;11112;51.270;7.224;2024-02-23T11:21:14;4.47;;;0.50;;
21894;SDS011;11112;51.270;7.224;2024-02-23T11:24:07;2.45;;;0.52;;
21894;SDS011;11112;51.270;7.224;2024-02-23T11:27:01;3.92;;;0.70;;
21894;SDS011;11112;51.270;7.224;2024-02-23T11:30:03;3.67;;;0.75;;
21894;SDS011;11112;51.270;7.224;2024-02-23T11:32:48;2.45;;;0.63;;
21894;SDS011;11112;51.270;7.224;2024-02-23T11:35:52;3.72;;;0.70;;
21894;SDS011;11112;51.270;7.224;2024-02-23T11:39:11;2.53;;;0.52;;
21894;SDS011;11112;51.270;7.224;2024-02-23T11:42:05;2.90;;;0.60;;
21894;SDS011;11112;51.270;7.224;2024-02-23T11:44:33;2.07;;;0.50;;
21894;SDS011;11112;51.270;7.224;2024-02-23T11:47:00;4.32;;;0.60;;
21894;SDS011;11112;51.270;7.224;2024-02-23T11:49:28;2.92;;;0.60;;
21894;SDS011;11112;51.270;7.224;2024-02-23T11:51:58;4.10;;;0.60;;
21894;SDS011;11112;51.270;7.224;2024-02-23T11:54:25;7.95;;;0.70;;
21894;SDS011;11112;51.270;7.224;2024-02-23T11:56:52;5.13;;;0.50;;
21894;SDS011;11112;51.270;7.224;2024-02-23T11:59:21;4.50;;;0.70;;
21894;SDS011;11112;51.270;7.224;2024-02-23T12:01:49;2.42;;;0.47;;
21894;SDS011;11112;51.270;7.224;2024-02-23T12:04:16;4.03;;;0.63;;
21894;SDS011;11112;51.270;7.224;2024-02-23T12:06:43;3.92;;;0.90;;
21894;SDS011;11112;51.270;7.224;2024-02-23T12:09:12;3.55;;;0.75;;
21894;SDS011;11112;51.270;7.224;2024-02-23T12:11:41;3.30;;;0.70;;
21894;SDS011;11112;51.270;7.224;2024-02-23T12:14:08;4.10;;;0.60;;
21894;SDS011;11112;51.270;7.224;2024-02-23T12:16:35;5.97;;;1.27;;
21894;SDS011;11112;51.270;7.224;2024-02-23T12:19:02;2.97;;;0.63;;
21894;SDS011;11112;51.270;7.224;2024-02-23T12:21:29;3.95;;;0.70;;
21894;SDS011;11112;51.270;7.224;2024-02-23T12:23:56;5.68;;;0.68;;
21894;SDS011;11112;51.270;7.224;2024-02-23T12:26:25;5.43;;;0.70;;
21894;SDS011;11112;51.270;7.224;2024-02-23T12:28:52;5.05;;;0.60;;
21894;SDS011;11112;51.270;7.224;2024-02-23T12:31:26;4.50;;;0.70;;
21894;SDS011;11112;51.270;7.224;2024-02-23T12:33:53;4.30;;;0.80;;
21894;SDS011;11112;51.270;7.224;2024-02-23T12:36:23;5.95;;;0.80;;
21894;SDS011;11112;51.270;7.224;2024-02-23T12:38:50;6.13;;;0.88;;
21894;SDS011;11112;51.270;7.224;2024-02-23T12:41:17;5.25;;;0.77;;
21894;SDS011;11112;51.270;7.224;2024-02-23T12:43:45;3.20;;;0.75;;
21894;SDS011;11112;51.270;7.224;2024-02-23T12:46:13;3.55;;;0.70;;
21894;SDS011;11112;51.270;7.224;2024-02-23T12:48:40;3.90;;;0.85;;
21894;SDS011;11112;51.270;7.224;2024-02-23T12:51:07;5.13;;;0.70;;
21894;SDS011;11112;51.270;7.224;2024-02-23T12:53:35;6.80;;;1.30;;
21894;SDS011;11112;51.270;7.224;2024-02-23T12:56:04;6.82;;;0.93;;
21894;SDS011;11112;51.270;7.224;2024-02-23T12:58:33;7.03;;;0.95;;
21894;SDS011;11112;51.270;7.224;2024-02-23T13:01:03;6.75;;;0.90;;
21894;SDS011;11112;51.270;7.224;2024-02-23T13:03:31;5.88;;;1.10;;
21894;SDS011;11112;51.270;7.224;2024-02-23T13:05:59;6.00;;;1.05;;
21894;SDS011;11112;51.270;7.224;2024-02-23T13:08:27;5.45;;;0.90;;
21894;SDS011;11112;51.270;7.224;2024-02-23T13:10:55;5.18;;;0.80;;
21894;SDS011;11112;51.270;7.224;2024-02-23T13:13:23;4.07;;;0.95;;
21894;SDS011;11112;51.270;7.224;2024-02-23T13:15:51;3.03;;;0.80;;
21894;SDS011;11112;51.270;7.224;2024-02-23T13:18:21;4.40;;;0.80;;
21894;SDS011;11112;51.270;7.224;2024-02-23T13:20:48;6.03;;;0.80;;
21894;SDS011;11112;51.270;7.224;2024-02-23T13:23:15;6.03;;;0.80;;
21894;SDS011;11112;51.270;7.224;2024-02-23T13:25:43;5.32;;;0.85;;
21894;SDS011;11112;51.270;7.224;2024-02-23T13:28:11;4.68;;;0.90;;
21894;SDS011;11112;51.270;7.224;2024-02-23T13:30:38;7.55;;;0.70;;
21894;SDS011;11112;51.270;7.224;2024-02-23T13:33:05;4.50;;;0.90;;
21894;SDS011;11112;51.270;7.224;2024-02-23T13:35:34;5.88;;;1.00;;
21894;SDS011;11112;51.270;7.224;2024-02-23T13:38:01;5.28;;;0.85;;
21894;SDS011;11112;51.270;7.224;2024-02-23T13:40:29;5.38;;;0.85;;
21894;SDS011;11112;51.270;7.224;2024-02-23T13:42:56;5.50;;;0.93;;
21894;SDS011;11112;51.270;7.224;2024-02-23T13:45:23;4.70;;;0.73;;
21894;SDS011;11112;51.270;7.224;2024-02-23T13:47:57;5.97;;;1.00;;
21894;SDS011;11112;51.270;7.224;2024-02-23T13:50:25;4.75;;;1.20;;
21894;SDS011;11112;51.270;7.224;2024-02-23T13:52:54;3.08;;;0.93;;
21894;SDS011;11112;51.270;7.224;2024-02-23T13:55:22;7.15;;;1.20;;
21894;SDS011;11112;51.270;7.224;2024-02-23T13:57:49;4.80;;;1.00;;
21894;SDS011;11112;51.270;7.224;2024-02-23T14:00:19;7.07;;;1.23;;
21894;SDS011;11112;51.270;7.224;2024-02-23T14:02:47;5.50;;;1.10;;
21894;SDS011;11112;51.270;7.224;2024-02-23T14:05:14;6.10;;;1.00;;
21894;SDS011;11112;51.270;7.224;2024-02-23T14:07:43;3.08;;;0.90;;
21894;SDS011;11112;51.270;7.224;2024-02-23T14:10:11;5.78;;;0.85;;
21894;SDS011;11112;51.270;7.224;2024-02-23T14:12:38;6.82;;;0.93;;
21894;SDS011;11112;51.270;7.224;2024-02-23T14:15:06;4.13;;;0.80;;
21894;SDS011;11112;51.270;7.224;2024-02-23T14:17:35;5.38;;;0.75;;
21894;SDS011;11112;51.270;7.224;2024-02-23T14:20:02;6.20;;;1.00;;
21894;SDS011;11112;51.270;7.224;2024-02-23T14:22:31;6.32;;;0.85;;
21894;SDS011;11112;51.270;7.224;2024-02-23T14:24:59;3.22;;;0.70;;
21894;SDS011;11112;51.270;7.224;2024-02-23T14:27:27;5.55;;;0.98;;
21894;SDS011;11112;51.270;7.224;2024-02-23T14:29:54;3.72;;;0.70;;
21894;SDS011;11112;51.270;7.224;2024-02-23T14:32:21;3.65;;;0.80;;
21894;SDS011;11112;51.270;7.224;2024-02-23T14:34:48;5.40;;;0.70;;
21894;SDS011;11112;51.270;7.224;2024-02-23T14:37:15;4.47;;;0.63;;
21894;SDS011;11112;51.270;7.224;2024-02-23T14:39:42;6.00;;;1.00;;
21894;SDS011;11112;51.270;7.224;2024-02-23T14:42:09;6.55;;;0.90;;
21894;SDS011;11112;51.270;7.224;2024-02-23T14:44:38;5.43;;;0.80;;
21894;SDS011;11112;51.270;7.224;2024-02-23T14:47:05;3.72;;;0.93;;
21894;SDS011;11112;51.270;7.224;2024-02-23T14:49:32;3.97;;;0.77;;
21894;SDS011;11112;51.270;7.224;2024-02-23T14:51:59;4.70;;;0.90;;
21894;SDS011;11112;51.270;7.224;2024-02-23T14:54:26;2.83;;;0.68;;
21894;SDS011;11112;51.270;7.224;2024-02-23T14:56:54;4.28;;;0.80;;
21894;SDS011;11112;51.270;7.224;2024-02-23T14:59:21;3.30;;;0.65;;
21894;SDS011;11112;51.270;7.224;2024-02-23T15:01:50;3.30;;;0.60;;
21894;SDS011;11112;51.270;7.224;2024-02-23T15:04:17;3.92;;;0.88;;
21894;SDS011;11112;51.270;7.224;2024-02-23T15:06:44;3.80;;;0.70;;
21894;SDS011;11112;51.270;7.224;2024-02-23T15:09:11;3.70;;;0.82;;
21894;SDS011;11112;51.270;7.224;2024-02-23T15:11:38;4.57;;;0.73;;
21894;SDS011;11112;51.270;7.224;2024-02-23T15:14:05;5.30;;;1.10;;
21894;SDS011;11112;51.270;7.224;2024-02-23T15:16:32;4.72;;;1.00;;
21894;SDS011;11112;51.270;7.224;2024-02-23T15:19:02;4.18;;;0.90;;
21894;SDS011;11112;51.270;7.224;2024-02-23T15:21:29;2.80;;;0.90;;
21894;SDS011;11112;51.270;7.224;2024-02-23T15:23:56;4.82;;;1.00;;
21894;SDS011;11112;51.270;7.224;2024-02-23T15:26:24;4.78;;;0.93;;
21894;SDS011;11112;51.270;7.224;2024-02-23T15:28:51;5.30;;;1.23;;
21894;SDS011;11112;51.270;7.224;2024-02-23T15:31:19;3.38;;;0.80;;
21894;SDS011;11112;51.270;7.224;2024-02-23T15:33:47;4.50;;;1.08;;
21894;SDS011;11112;51.270;7.224;2024-02-23T15:36:15;2.58;;;0.90;;
21894;SDS011;11112;51.270;7.224;2024-02-23T15:38:42;4.97;;;0.82;;
21894;SDS011;11112;51.270;7.224;2024-02-23T15:41:09;3.42;;;0.80;;
21894;SDS011;11112;51.270;7.224;2024-02-23T15:43:37;4.10;;;0.90;;
21894;SDS011;11112;51.270;7.224;2024-02-23T15:46:04;4.45;;;0.80;;
21894;SDS011;11112;51.270;7.224;2024-02-23T15:48:31;3.70;;;0.88;;
21894;SDS011;11112;51.270;7.224;2024-02-23T15:50:59;4.45;;;0.90;;
21894;SDS011;11112;51.270;7.224;2024-02-23T15:53:27;4.85;;;1.05;;
21894;SDS011;11112;51.270;7.224;2024-02-23T15:55:54;3.63;;;0.63;;
21894;SDS011;11112;51.270;7.224;2024-02-23T15:58:22;4.75;;;0.80;;
21894;SDS011;11112;51.270;7.224;2024-02-23T16:00:49;3.42;;;0.90;;
21894;SDS011;11112;51.270;7.224;2024-02-23T16:03:17;5.85;;;0.98;;
21894;SDS011;11112;51.270;7.224;2024-02-23T16:05:44;5.03;;;0.80;;
21894;SDS011;11112;51.270;7.224;2024-02-23T16:08:12;3.03;;;0.80;;
21894;SDS011;11112;51.270;7.224;2024-02-23T16:10:40;4.50;;;0.60;;
21894;SDS011;11112;51.270;7.224;2024-02-23T16:13:08;3.10;;;1.10;;
21894;SDS011;11112;51.270;7.224;2024-02-23T16:15:35;5.65;;;1.15;;
21894;SDS011;11112;51.270;7.224;2024-02-23T16:18:02;4.30;;;0.80;;
21894;SDS011;11112;51.270;7.224;2024-02-23T16:20:32;3.65;;;0.88;;
21894;SDS011;11112;51.270;7.224;2024-02-23T16:22:59;3.05;;;0.80;;
21894;SDS011;11112;51.270;7.224;2024-02-23T16:25:27;5.50;;;1.00;;
21894;SDS011;11112;51.270;7.224;2024-02-23T16:27:56;4.05;;;1.20;;
21894;SDS011;11112;51.270;7.224;2024-02-23T16:30:23;4.95;;;1.10;;
21894;SDS011;11112;51.270;7.224;2024-02-23T16:32:50;4.32;;;1.10;;
21894;SDS011;11112;51.270;7.224;2024-02-23T16:35:18;3.65;;;1.00;;
21894;SDS011;11112;51.270;7.224;2024-02-23T16:37:45;3.85;;;0.90;;
21894;SDS011;11112;51.270;7.224;2024-02-23T16:40:19;4.55;;;1.27;;
21894;SDS011;11112;51.270;7.224;2024-02-23T16:42:53;4.35;;;1.00;;
21894;SDS011;11112;51.270;7.224;2024-02-23T16:45:22;5.35;;;1.20;;